Airfield :
LOGIN :

Register | Disclaimer

   EN    FR    IT 

 










Legend :    VFR   Marginal VFR   IFR   Intensive IFR   Very Intensive IFR
Visi :
Ceiling :
>= 8 km
>= 3000ft
5 to 8 km
1000 to 3000 ft
1500m to 5 km
500 to 1000 ft
800 to 1500m
200 to 500 ft
< 800m
< 200 ft
Symbols :   Thunderstorms  Fog  Heavy snow  Heavy precipitations  Wind > 20 kt
SIGMETs :     Misc.  Thunderstorms  Icing  Turbulence  Mountain Waves  Volcanic Ashes







- Airport Elevation : -11 ft
- IATA code : AMS


EHAM - Amsterdam Schiphol

CURRENT METAR :
  • 180855Z VRB02KT CAVOK 22/14 Q1015 NOSIG

EXPIRED METARs :
  • 180825Z VRB03KT CAVOK 22/15 Q1015 NOSIG
  • 180755Z 30001KT CAVOK 22/14 Q1015 NOSIG
  • 180725Z 29003KT 240V340 CAVOK 21/14 Q1015 NOSIG
  • 180655Z 29003KT 230V340 CAVOK 20/14 Q1015 NOSIG
  • 180625Z 31004KT CAVOK 19/13 Q1015 NOSIG
  • 180555Z VRB02KT CAVOK 19/13 Q1015 NOSIG

TAF TAF EHAM
Valid from the 18 at 06:00 until the 19 at 12:00 UTC


180448Z 1806/1912 VRB03KT CAVOK
BECMG 1815/1818 06008KT
BECMG 1901/1904 17005KT
BECMG 1905/1908 25008KT
No reported NOTAMs for that airfield.



MET'MAP, your aeronautical weather chart ! - Copyright ORBIFLY December 2007 - Disclaimer

ORBIFLY MET'MAP TEAM :

Programming & Development : Alexandra Zaïnal
Concept & Development : Baudouin d'Aumeries
Co-Development & Prog : Marc-Olivier Méhu
Technical & hardware support : Manuel Goepfert

Contact : metmap@orbifly.com




SOURCES & CREDITS :

   NOAA